sensor_id;sensor_type;location;lat;lon;timestamp;temperature;humidity
23827;DHT22;12094;50.822;4.376;2022-07-24T00:00:51;21.50;99.90
23827;DHT22;12094;50.822;4.376;2022-07-24T00:03:18;21.60;99.90
23827;DHT22;12094;50.822;4.376;2022-07-24T00:05:46;21.60;99.90
23827;DHT22;12094;50.822;4.376;2022-07-24T00:08:13;21.60;99.90
23827;DHT22;12094;50.822;4.376;2022-07-24T00:10:41;21.60;99.90
23827;DHT22;12094;50.822;4.376;2022-07-24T00:13:08;21.60;99.90
23827;DHT22;12094;50.822;4.376;2022-07-24T00:15:36;21.60;99.90
23827;DHT22;12094;50.822;4.376;2022-07-24T00:18:04;21.60;99.90
23827;DHT22;12094;50.822;4.376;2022-07-24T00:20:31;21.60;99.90
23827;DHT22;12094;50.822;4.376;2022-07-24T00:22:58;21.60;99.90
23827;DHT22;12094;50.822;4.376;2022-07-24T00:25:25;21.50;99.90
23827;DHT22;12094;50.822;4.376;2022-07-24T00:27:52;21.50;99.90
23827;DHT22;12094;50.822;4.376;2022-07-24T00:30:19;21.40;99.90
23827;DHT22;12094;50.822;4.376;2022-07-24T00:32:46;21.40;99.90
23827;DHT22;12094;50.822;4.376;2022-07-24T00:35:13;21.40;99.90
23827;DHT22;12094;50.822;4.376;2022-07-24T00:37:40;21.30;99.90
23827;DHT22;12094;50.822;4.376;2022-07-24T00:40:08;21.20;99.90
23827;DHT22;12094;50.822;4.376;2022-07-24T00:42:35;21.20;99.90
23827;DHT22;12094;50.822;4.376;2022-07-24T00:45:02;21.20;99.90
23827;DHT22;12094;50.822;4.376;2022-07-24T00:47:48;21.10;99.90
23827;DHT22;12094;50.822;4.376;2022-07-24T00:50:15;21.00;99.90
23827;DHT22;12094;50.822;4.376;2022-07-24T00:52:44;20.70;99.90
23827;DHT22;12094;50.822;4.376;2022-07-24T00:55:12;20.60;99.90
23827;DHT22;12094;50.822;4.376;2022-07-24T00:57:39;20.50;99.90
23827;DHT22;12094;50.822;4.376;2022-07-24T01:00:07;20.40;99.90
23827;DHT22;12094;50.822;4.376;2022-07-24T01:02:34;20.30;99.90
23827;DHT22;12094;50.822;4.376;2022-07-24T01:05:01;20.20;99.90
23827;DHT22;12094;50.822;4.376;2022-07-24T01:07:28;20.10;99.90
23827;DHT22;12094;50.822;4.376;2022-07-24T01:09:56;20.10;99.90
23827;DHT22;12094;50.822;4.376;2022-07-24T01:12:26;20.10;99.90
23827;DHT22;12094;50.822;4.376;2022-07-24T01:14:54;20.20;99.90
23827;DHT22;12094;50.822;4.376;2022-07-24T01:17:29;20.30;99.90
23827;DHT22;12094;50.822;4.376;2022-07-24T01:20:00;20.30;99.90
23827;DHT22;12094;50.822;4.376;2022-07-24T01:22:30;20.30;99.90
23827;DHT22;12094;50.822;4.376;2022-07-24T01:24:57;20.30;99.90
23827;DHT22;12094;50.822;4.376;2022-07-24T01:27:25;20.30;99.90
23827;DHT22;12094;50.822;4.376;2022-07-24T01:29:53;20.30;99.90
23827;DHT22;12094;50.822;4.376;2022-07-24T01:32:26;20.20;99.90
23827;DHT22;12094;50.822;4.376;2022-07-24T01:35:00;20.10;99.90
23827;DHT22;12094;50.822;4.376;2022-07-24T01:37:27;20.00;99.90
23827;DHT22;12094;50.822;4.376;2022-07-24T01:39:54;20.10;99.90
23827;DHT22;12094;50.822;4.376;2022-07-24T01:42:21;20.00;99.90
23827;DHT22;12094;50.822;4.376;2022-07-24T01:44:48;19.80;99.90
23827;DHT22;12094;50.822;4.376;2022-07-24T01:47:17;19.90;99.90
23827;DHT22;12094;50.822;4.376;2022-07-24T01:49:51;19.80;99.90
23827;DHT22;12094;50.822;4.376;2022-07-24T01:52:18;19.80;99.90
23827;DHT22;12094;50.822;4.376;2022-07-24T01:54:45;19.70;99.90
23827;DHT22;12094;50.822;4.376;2022-07-24T01:57:13;19.80;99.90
23827;DHT22;12094;50.822;4.376;2022-07-24T01:59:45;19.80;99.90
23827;DHT22;12094;50.822;4.376;2022-07-24T02:02:13;19.80;99.90
23827;DHT22;12094;50.822;4.376;2022-07-24T02:05:06;19.70;99.90
23827;DHT22;12094;50.822;4.376;2022-07-24T02:07:34;19.70;99.90
23827;DHT22;12094;50.822;4.376;2022-07-24T02:10:02;19.60;99.90
23827;DHT22;12094;50.822;4.376;2022-07-24T02:12:30;19.70;99.90
23827;DHT22;12094;50.822;4.376;2022-07-24T02:15:02;19.70;99.90
23827;DHT22;12094;50.822;4.376;2022-07-24T02:17:30;19.60;99.90
23827;DHT22;12094;50.822;4.376;2022-07-24T02:19:57;19.70;99.90
23827;DHT22;12094;50.822;4.376;2022-07-24T02:22:28;19.50;99.90
23827;DHT22;12094;50.822;4.376;2022-07-24T02:24:56;19.40;99.90
23827;DHT22;12094;50.822;4.376;2022-07-24T02:27:23;19.40;99.90
23827;DHT22;12094;50.822;4.376;2022-07-24T02:29:50;19.40;99.90
23827;DHT22;12094;50.822;4.376;2022-07-24T02:32:17;19.30;99.90
23827;DHT22;12094;50.822;4.376;2022-07-24T02:34:44;19.40;99.90
23827;DHT22;12094;50.822;4.376;2022-07-24T02:37:11;19.30;99.90
23827;DHT22;12094;50.822;4.376;2022-07-24T02:39:41;19.20;99.90
23827;DHT22;12094;50.822;4.376;2022-07-24T02:42:10;19.10;99.90
23827;DHT22;12094;50.822;4.376;2022-07-24T02:44:37;19.10;99.90
23827;DHT22;12094;50.822;4.376;2022-07-24T02:47:04;19.10;99.90
23827;DHT22;12094;50.822;4.376;2022-07-24T02:49:32;19.00;99.90
23827;DHT22;12094;50.822;4.376;2022-07-24T02:51:59;19.00;99.90
23827;DHT22;12094;50.822;4.376;2022-07-24T02:54:26;18.90;99.90
23827;DHT22;12094;50.822;4.376;2022-07-24T02:56:53;18.90;99.90
23827;DHT22;12094;50.822;4.376;2022-07-24T02:59:20;18.90;99.90
23827;DHT22;12094;50.822;4.376;2022-07-24T03:01:47;18.80;99.90
23827;DHT22;12094;50.822;4.376;2022-07-24T03:04:14;18.80;99.90
23827;DHT22;12094;50.822;4.376;2022-07-24T03:06:41;18.90;99.90
23827;DHT22;12094;50.822;4.376;2022-07-24T03:09:08;19.00;99.90
23827;DHT22;12094;50.822;4.376;2022-07-24T03:11:35;19.10;99.90
23827;DHT22;12094;50.822;4.376;2022-07-24T03:14:02;19.30;99.90
23827;DHT22;12094;50.822;4.376;2022-07-24T03:16:29;19.30;99.90
23827;DHT22;12094;50.822;4.376;2022-07-24T03:19:00;19.30;99.90
23827;DHT22;12094;50.822;4.376;2022-07-24T03:21:27;19.40;99.90
23827;DHT22;12094;50.822;4.376;2022-07-24T03:24:16;19.30;99.90
23827;DHT22;12094;50.822;4.376;2022-07-24T03:26:43;19.10;99.90
23827;DHT22;12094;50.822;4.376;2022-07-24T03:29:10;19.10;99.90
23827;DHT22;12094;50.822;4.376;2022-07-24T03:31:37;18.90;99.90
23827;DHT22;12094;50.822;4.376;2022-07-24T03:34:04;18.90;99.90
23827;DHT22;12094;50.822;4.376;2022-07-24T03:36:31;18.80;99.90
23827;DHT22;12094;50.822;4.376;2022-07-24T03:38:59;18.70;99.90
23827;DHT22;12094;50.822;4.376;2022-07-24T03:41:27;18.60;99.90
23827;DHT22;12094;50.822;4.376;2022-07-24T03:43:54;18.50;99.90
23827;DHT22;12094;50.822;4.376;2022-07-24T03:46:21;18.50;99.90
23827;DHT22;12094;50.822;4.376;2022-07-24T03:48:48;18.40;99.90
23827;DHT22;12094;50.822;4.376;2022-07-24T03:51:19;18.50;99.90
23827;DHT22;12094;50.822;4.376;2022-07-24T03:53:46;18.50;99.90
23827;DHT22;12094;50.822;4.376;2022-07-24T03:56:13;18.50;99.90
23827;DHT22;12094;50.822;4.376;2022-07-24T03:58:40;18.40;99.90
23827;DHT22;12094;50.822;4.376;2022-07-24T04:01:07;18.40;99.90
23827;DHT22;12094;50.822;4.376;2022-07-24T04:03:36;18.40;99.90
23827;DHT22;12094;50.822;4.376;2022-07-24T04:06:09;18.30;99.90
23827;DHT22;12094;50.822;4.376;2022-07-24T04:08:36;18.40;99.90
23827;DHT22;12094;50.822;4.376;2022-07-24T04:11:04;18.30;99.90
23827;DHT22;12094;50.822;4.376;2022-07-24T04:13:31;18.30;99.90
23827;DHT22;12094;50.822;4.376;2022-07-24T04:15:58;18.30;99.90
23827;DHT22;12094;50.822;4.376;2022-07-24T04:18:26;18.30;99.90
23827;DHT22;12094;50.822;4.376;2022-07-24T04:20:53;18.30;99.90
23827;DHT22;12094;50.822;4.376;2022-07-24T04:23:20;18.20;99.90
23827;DHT22;12094;50.822;4.376;2022-07-24T04:25:47;18.20;99.90
23827;DHT22;12094;50.822;4.376;2022-07-24T04:28:15;18.20;99.90
23827;DHT22;12094;50.822;4.376;2022-07-24T04:30:43;18.20;99.90
23827;DHT22;12094;50.822;4.376;2022-07-24T04:33:11;18.20;99.90
23827;DHT22;12094;50.822;4.376;2022-07-24T04:35:38;18.30;99.90
23827;DHT22;12094;50.822;4.376;2022-07-24T04:38:06;18.40;99.90
23827;DHT22;12094;50.822;4.376;2022-07-24T04:40:33;18.30;99.90
23827;DHT22;12094;50.822;4.376;2022-07-24T04:43:00;18.30;99.90
23827;DHT22;12094;50.822;4.376;2022-07-24T04:45:33;18.30;99.90
23827;DHT22;12094;50.822;4.376;2022-07-24T04:48:02;18.20;99.90
23827;DHT22;12094;50.822;4.376;2022-07-24T04:50:29;18.20;99.90
23827;DHT22;12094;50.822;4.376;2022-07-24T04:52:57;18.20;99.90
23827;DHT22;12094;50.822;4.376;2022-07-24T04:55:24;18.20;99.90
23827;DHT22;12094;50.822;4.376;2022-07-24T04:57:54;18.30;99.90
23827;DHT22;12094;50.822;4.376;2022-07-24T05:00:21;18.30;99.90
23827;DHT22;12094;50.822;4.376;2022-07-24T05:02:49;18.30;99.90
23827;DHT22;12094;50.822;4.376;2022-07-24T05:05:16;18.30;99.90
23827;DHT22;12094;50.822;4.376;2022-07-24T05:07:45;18.30;99.90
23827;DHT22;12094;50.822;4.376;2022-07-24T05:10:13;18.40;99.90
23827;DHT22;12094;50.822;4.376;2022-07-24T05:12:40;18.40;99.90
23827;DHT22;12094;50.822;4.376;2022-07-24T05:15:07;18.50;99.90
23827;DHT22;12094;50.822;4.376;2022-07-24T05:17:38;18.50;99.90
23827;DHT22;12094;50.822;4.376;2022-07-24T05:20:07;18.50;99.90
23827;DHT22;12094;50.822;4.376;2022-07-24T05:22:35;18.50;99.90
23827;DHT22;12094;50.822;4.376;2022-07-24T05:25:02;18.50;99.90
23827;DHT22;12094;50.822;4.376;2022-07-24T05:27:30;18.60;99.90
23827;DHT22;12094;50.822;4.376;2022-07-24T05:29:57;18.70;99.90
23827;DHT22;12094;50.822;4.376;2022-07-24T05:32:24;18.70;99.90
23827;DHT22;12094;50.822;4.376;2022-07-24T05:34:53;18.60;99.90
23827;DHT22;12094;50.822;4.376;2022-07-24T05:37:20;18.80;99.90
23827;DHT22;12094;50.822;4.376;2022-07-24T05:39:48;18.90;99.90
23827;DHT22;12094;50.822;4.376;2022-07-24T05:42:18;18.90;99.90
23827;DHT22;12094;50.822;4.376;2022-07-24T05:44:46;19.00;99.90
23827;DHT22;12094;50.822;4.376;2022-07-24T05:47:14;19.10;99.90
23827;DHT22;12094;50.822;4.376;2022-07-24T05:49:44;19.10;99.90
23827;DHT22;12094;50.822;4.376;2022-07-24T05:52:11;19.20;99.90
23827;DHT22;12094;50.822;4.376;2022-07-24T05:54:39;19.20;99.90
23827;DHT22;12094;50.822;4.376;2022-07-24T05:57:06;19.30;99.90
23827;DHT22;12094;50.822;4.376;2022-07-24T05:59:33;19.40;99.90
23827;DHT22;12094;50.822;4.376;2022-07-24T06:02:04;19.50;99.90
23827;DHT22;12094;50.822;4.376;2022-07-24T06:04:33;19.50;99.90
23827;DHT22;12094;50.822;4.376;2022-07-24T06:07:02;19.70;99.90
23827;DHT22;12094;50.822;4.376;2022-07-24T06:09:29;19.70;99.90
23827;DHT22;12094;50.822;4.376;2022-07-24T06:11:56;19.70;99.90
23827;DHT22;12094;50.822;4.376;2022-07-24T06:14:24;19.80;99.90
23827;DHT22;12094;50.822;4.376;2022-07-24T06:16:53;19.90;99.90
23827;DHT22;12094;50.822;4.376;2022-07-24T06:19:19;19.90;99.90
23827;DHT22;12094;50.822;4.376;2022-07-24T06:21:46;20.00;99.90
23827;DHT22;12094;50.822;4.376;2022-07-24T06:24:13;20.20;99.90
23827;DHT22;12094;50.822;4.376;2022-07-24T06:26:40;20.30;99.90
23827;DHT22;12094;50.822;4.376;2022-07-24T06:29:29;20.30;99.90
23827;DHT22;12094;50.822;4.376;2022-07-24T06:31:56;20.30;99.90
23827;DHT22;12094;50.822;4.376;2022-07-24T06:34:23;20.30;99.90
23827;DHT22;12094;50.822;4.376;2022-07-24T06:36:51;20.40;99.90
23827;DHT22;12094;50.822;4.376;2022-07-24T06:39:18;20.50;99.90
23827;DHT22;12094;50.822;4.376;2022-07-24T06:41:46;20.60;99.90
23827;DHT22;12094;50.822;4.376;2022-07-24T06:44:23;20.70;99.90
23827;DHT22;12094;50.822;4.376;2022-07-24T06:46:51;20.80;99.90
23827;DHT22;12094;50.822;4.376;2022-07-24T06:49:19;20.90;99.90
23827;DHT22;12094;50.822;4.376;2022-07-24T06:51:46;21.10;99.90
23827;DHT22;12094;50.822;4.376;2022-07-24T06:54:14;21.30;99.90
23827;DHT22;12094;50.822;4.376;2022-07-24T06:56:42;21.30;99.90
23827;DHT22;12094;50.822;4.376;2022-07-24T06:59:19;21.50;99.90
23827;DHT22;12094;50.822;4.376;2022-07-24T07:01:47;21.50;99.90
23827;DHT22;12094;50.822;4.376;2022-07-24T07:04:15;21.70;99.90
23827;DHT22;12094;50.822;4.376;2022-07-24T07:06:42;21.80;99.90
23827;DHT22;12094;50.822;4.376;2022-07-24T07:09:11;21.90;99.90
23827;DHT22;12094;50.822;4.376;2022-07-24T07:11:39;21.90;99.90
23827;DHT22;12094;50.822;4.376;2022-07-24T07:14:07;21.90;99.90
23827;DHT22;12094;50.822;4.376;2022-07-24T07:16:37;22.00;99.90
23827;DHT22;12094;50.822;4.376;2022-07-24T07:19:05;22.00;99.90
23827;DHT22;12094;50.822;4.376;2022-07-24T07:21:33;22.10;99.90
23827;DHT22;12094;50.822;4.376;2022-07-24T07:24:04;22.20;99.90
23827;DHT22;12094;50.822;4.376;2022-07-24T07:26:32;22.30;99.90
23827;DHT22;12094;50.822;4.376;2022-07-24T07:28:59;22.40;99.90
23827;DHT22;12094;50.822;4.376;2022-07-24T07:31:27;22.40;99.90
23827;DHT22;12094;50.822;4.376;2022-07-24T07:33:55;22.60;99.90
23827;DHT22;12094;50.822;4.376;2022-07-24T07:36:26;22.90;99.90
23827;DHT22;12094;50.822;4.376;2022-07-24T07:38:53;22.90;99.90
23827;DHT22;12094;50.822;4.376;2022-07-24T07:41:21;23.00;99.90
23827;DHT22;12094;50.822;4.376;2022-07-24T07:43:49;23.00;99.90
23827;DHT22;12094;50.822;4.376;2022-07-24T07:46:16;23.20;99.90
23827;DHT22;12094;50.822;4.376;2022-07-24T07:48:45;23.40;99.90
23827;DHT22;12094;50.822;4.376;2022-07-24T07:51:12;23.70;99.90
23827;DHT22;12094;50.822;4.376;2022-07-24T07:53:45;23.90;99.90
23827;DHT22;12094;50.822;4.376;2022-07-24T07:56:12;23.70;99.90
23827;DHT22;12094;50.822;4.376;2022-07-24T07:58:40;23.60;99.90
23827;DHT22;12094;50.822;4.376;2022-07-24T08:01:07;23.70;99.90
23827;DHT22;12094;50.822;4.376;2022-07-24T08:03:38;23.80;99.90
23827;DHT22;12094;50.822;4.376;2022-07-24T08:06:07;23.80;99.90
23827;DHT22;12094;50.822;4.376;2022-07-24T08:08:43;23.80;99.90
23827;DHT22;12094;50.822;4.376;2022-07-24T08:11:10;23.70;99.90
23827;DHT22;12094;50.822;4.376;2022-07-24T08:13:39;23.60;99.90
23827;DHT22;12094;50.822;4.376;2022-07-24T08:16:06;23.60;99.90
23827;DHT22;12094;50.822;4.376;2022-07-24T08:18:33;23.70;99.90
23827;DHT22;12094;50.822;4.376;2022-07-24T08:21:00;23.90;99.90
23827;DHT22;12094;50.822;4.376;2022-07-24T08:23:27;24.00;99.90
23827;DHT22;12094;50.822;4.376;2022-07-24T08:25:54;24.30;99.90
23827;DHT22;12094;50.822;4.376;2022-07-24T08:28:21;24.30;99.90
23827;DHT22;12094;50.822;4.376;2022-07-24T08:30:50;24.50;99.90
23827;DHT22;12094;50.822;4.376;2022-07-24T08:33:18;24.40;99.90
23827;DHT22;12094;50.822;4.376;2022-07-24T08:35:45;24.40;99.90
23827;DHT22;12094;50.822;4.376;2022-07-24T08:38:12;24.60;99.90
23827;DHT22;12094;50.822;4.376;2022-07-24T08:40:39;24.80;99.90
23827;DHT22;12094;50.822;4.376;2022-07-24T08:43:09;24.70;99.90
23827;DHT22;12094;50.822;4.376;2022-07-24T08:45:41;24.60;99.90
23827;DHT22;12094;50.822;4.376;2022-07-24T08:48:16;24.60;99.90
23827;DHT22;12094;50.822;4.376;2022-07-24T08:50:45;24.70;99.90
23827;DHT22;12094;50.822;4.376;2022-07-24T08:53:12;24.80;99.90
23827;DHT22;12094;50.822;4.376;2022-07-24T08:55:40;24.90;99.90
23827;DHT22;12094;50.822;4.376;2022-07-24T08:58:08;25.10;99.90
23827;DHT22;12094;50.822;4.376;2022-07-24T09:00:35;25.30;99.90
23827;DHT22;12094;50.822;4.376;2022-07-24T09:03:02;25.30;99.90
23827;DHT22;12094;50.822;4.376;2022-07-24T09:05:29;25.60;99.90
23827;DHT22;12094;50.822;4.376;2022-07-24T09:08:10;25.60;99.90
23827;DHT22;12094;50.822;4.376;2022-07-24T09:10:40;25.40;99.90
23827;DHT22;12094;50.822;4.376;2022-07-24T09:13:14;25.30;99.90
23827;DHT22;12094;50.822;4.376;2022-07-24T09:15:46;25.40;99.90
23827;DHT22;12094;50.822;4.376;2022-07-24T09:18:32;25.50;99.90
23827;DHT22;12094;50.822;4.376;2022-07-24T09:21:14;25.40;99.90
23827;DHT22;12094;50.822;4.376;2022-07-24T09:23:43;25.40;99.90
23827;DHT22;12094;50.822;4.376;2022-07-24T09:26:10;25.60;99.90
23827;DHT22;12094;50.822;4.376;2022-07-24T09:28:54;25.60;99.90
23827;DHT22;12094;50.822;4.376;2022-07-24T09:31:24;25.80;99.90
23827;DHT22;12094;50.822;4.376;2022-07-24T09:33:51;25.90;99.90
23827;DHT22;12094;50.822;4.376;2022-07-24T09:36:19;26.10;99.90
23827;DHT22;12094;50.822;4.376;2022-07-24T09:38:50;26.30;99.90
23827;DHT22;12094;50.822;4.376;2022-07-24T09:41:22;26.20;99.90
23827;DHT22;12094;50.822;4.376;2022-07-24T09:44:00;26.20;99.90
23827;DHT22;12094;50.822;4.376;2022-07-24T09:46:29;26.30;99.90
23827;DHT22;12094;50.822;4.376;2022-07-24T09:48:58;26.60;99.90
23827;DHT22;12094;50.822;4.376;2022-07-24T09:51:29;26.80;99.90
23827;DHT22;12094;50.822;4.376;2022-07-24T09:53:58;26.70;99.90
23827;DHT22;12094;50.822;4.376;2022-07-24T09:56:26;26.90;99.90
23827;DHT22;12094;50.822;4.376;2022-07-24T09:58:55;27.00;99.90
23827;DHT22;12094;50.822;4.376;2022-07-24T10:01:26;26.80;99.90
23827;DHT22;12094;50.822;4.376;2022-07-24T10:03:55;27.00;99.90
23827;DHT22;12094;50.822;4.376;2022-07-24T10:06:26;27.20;99.90
23827;DHT22;12094;50.822;4.376;2022-07-24T10:08:55;27.30;99.90
23827;DHT22;12094;50.822;4.376;2022-07-24T10:11:22;27.00;99.90
23827;DHT22;12094;50.822;4.376;2022-07-24T10:13:49;26.70;99.90
23827;DHT22;12094;50.822;4.376;2022-07-24T10:16:39;26.60;99.90
23827;DHT22;12094;50.822;4.376;2022-07-24T10:19:28;26.90;99.90
23827;DHT22;12094;50.822;4.376;2022-07-24T10:21:58;27.10;99.90
23827;DHT22;12094;50.822;4.376;2022-07-24T10:27:34;27.40;99.90
23827;DHT22;12094;50.822;4.376;2022-07-24T10:30:09;27.50;99.90
23827;DHT22;12094;50.822;4.376;2022-07-24T10:32:38;27.40;99.90
23827;DHT22;12094;50.822;4.376;2022-07-24T10:35:21;27.20;99.90
23827;DHT22;12094;50.822;4.376;2022-07-24T10:37:56;27.40;99.90
23827;DHT22;12094;50.822;4.376;2022-07-24T10:40:45;27.60;99.90
23827;DHT22;12094;50.822;4.376;2022-07-24T10:43:17;27.60;99.90
23827;DHT22;12094;50.822;4.376;2022-07-24T10:53:30;27.10;99.90
23827;DHT22;12094;50.822;4.376;2022-07-24T10:56:38;27.10;99.90
23827;DHT22;12094;50.822;4.376;2022-07-24T10:59:09;27.30;99.90
23827;DHT22;12094;50.822;4.376;2022-07-24T11:06:52;27.90;99.90
23827;DHT22;12094;50.822;4.376;2022-07-24T11:09:25;28.10;99.90
23827;DHT22;12094;50.822;4.376;2022-07-24T11:14:26;27.70;99.90
23827;DHT22;12094;50.822;4.376;2022-07-24T11:20:10;27.90;99.90
23827;DHT22;12094;50.822;4.376;2022-07-24T11:27:44;28.10;99.90
23827;DHT22;12094;50.822;4.376;2022-07-24T11:30:12;28.10;99.90
23827;DHT22;12094;50.822;4.376;2022-07-24T11:32:43;28.20;99.90
23827;DHT22;12094;50.822;4.376;2022-07-24T11:35:10;28.60;99.90
23827;DHT22;12094;50.822;4.376;2022-07-24T11:37:41;29.10;99.90
23827;DHT22;12094;50.822;4.376;2022-07-24T11:40:14;29.40;99.90
23827;DHT22;12094;50.822;4.376;2022-07-24T11:42:41;29.70;99.90
23827;DHT22;12094;50.822;4.376;2022-07-24T11:45:08;30.10;99.90
23827;DHT22;12094;50.822;4.376;2022-07-24T11:47:35;30.10;99.90
23827;DHT22;12094;50.822;4.376;2022-07-24T11:50:05;30.40;99.90
23827;DHT22;12094;50.822;4.376;2022-07-24T11:52:36;30.70;99.90
23827;DHT22;12094;50.822;4.376;2022-07-24T11:55:12;30.60;99.90
23827;DHT22;12094;50.822;4.376;2022-07-24T11:57:45;30.70;99.90
23827;DHT22;12094;50.822;4.376;2022-07-24T12:00:32;30.60;99.90
23827;DHT22;12094;50.822;4.376;2022-07-24T12:03:00;30.70;99.90
23827;DHT22;12094;50.822;4.376;2022-07-24T12:05:31;30.90;99.90
23827;DHT22;12094;50.822;4.376;2022-07-24T12:08:02;30.90;99.90
23827;DHT22;12094;50.822;4.376;2022-07-24T12:10:30;30.90;99.90
23827;DHT22;12094;50.822;4.376;2022-07-24T12:12:57;31.10;99.90
23827;DHT22;12094;50.822;4.376;2022-07-24T12:15:26;31.30;99.90
23827;DHT22;12094;50.822;4.376;2022-07-24T12:17:59;31.60;99.90
23827;DHT22;12094;50.822;4.376;2022-07-24T12:20:31;31.70;99.90
23827;DHT22;12094;50.822;4.376;2022-07-24T12:23:02;32.30;99.90
23827;DHT22;12094;50.822;4.376;2022-07-24T12:25:30;32.60;99.00
23827;DHT22;12094;50.822;4.376;2022-07-24T12:28:08;32.40;99.00
23827;DHT22;12094;50.822;4.376;2022-07-24T12:30:41;32.20;98.70
23827;DHT22;12094;50.822;4.376;2022-07-24T12:33:09;32.00;98.80
23827;DHT22;12094;50.822;4.376;2022-07-24T12:36:04;32.10;98.70
23827;DHT22;12094;50.822;4.376;2022-07-24T12:38:42;31.90;98.70
23827;DHT22;12094;50.822;4.376;2022-07-24T12:41:13;31.70;98.80
23827;DHT22;12094;50.822;4.376;2022-07-24T12:44:06;31.70;99.10
23827;DHT22;12094;50.822;4.376;2022-07-24T12:46:40;32.10;98.70
23827;DHT22;12094;50.822;4.376;2022-07-24T12:49:13;32.20;98.50
23827;DHT22;12094;50.822;4.376;2022-07-24T12:51:57;32.50;97.90
23827;DHT22;12094;50.822;4.376;2022-07-24T12:57:07;32.20;98.00
23827;DHT22;12094;50.822;4.376;2022-07-24T12:59:49;32.90;97.70
23827;DHT22;12094;50.822;4.376;2022-07-24T13:04:48;32.60;97.00
23827;DHT22;12094;50.822;4.376;2022-07-24T13:07:17;32.50;96.70
23827;DHT22;12094;50.822;4.376;2022-07-24T13:09:45;32.50;97.20
23827;DHT22;12094;50.822;4.376;2022-07-24T13:12:14;33.00;96.70
23827;DHT22;12094;50.822;4.376;2022-07-24T13:14:41;32.90;95.80
23827;DHT22;12094;50.822;4.376;2022-07-24T13:17:11;33.10;96.00
23827;DHT22;12094;50.822;4.376;2022-07-24T13:19:45;34.00;95.10
23827;DHT22;12094;50.822;4.376;2022-07-24T13:22:13;33.70;94.10
23827;DHT22;12094;50.822;4.376;2022-07-24T13:24:41;33.30;94.60
23827;DHT22;12094;50.822;4.376;2022-07-24T13:27:11;33.10;94.70
23827;DHT22;12094;50.822;4.376;2022-07-24T13:29:41;33.60;94.20
23827;DHT22;12094;50.822;4.376;2022-07-24T13:32:08;34.60;93.20
23827;DHT22;12094;50.822;4.376;2022-07-24T13:34:35;34.20;93.00
23827;DHT22;12094;50.822;4.376;2022-07-24T13:37:04;33.80;93.30
23827;DHT22;12094;50.822;4.376;2022-07-24T13:39:34;33.80;93.50
23827;DHT22;12094;50.822;4.376;2022-07-24T13:42:04;33.50;94.00
23827;DHT22;12094;50.822;4.376;2022-07-24T13:44:32;33.40;93.90
23827;DHT22;12094;50.822;4.376;2022-07-24T13:46:59;33.40;93.60
23827;DHT22;12094;50.822;4.376;2022-07-24T13:49:30;34.10;93.20
23827;DHT22;12094;50.822;4.376;2022-07-24T13:51:57;34.20;92.50
23827;DHT22;12094;50.822;4.376;2022-07-24T13:54:26;34.00;92.30
23827;DHT22;12094;50.822;4.376;2022-07-24T13:56:54;33.80;92.80
23827;DHT22;12094;50.822;4.376;2022-07-24T13:59:23;33.80;92.90
23827;DHT22;12094;50.822;4.376;2022-07-24T14:01:51;33.90;92.80
23827;DHT22;12094;50.822;4.376;2022-07-24T14:04:18;33.80;92.40
23827;DHT22;12094;50.822;4.376;2022-07-24T14:06:56;33.70;92.70
23827;DHT22;12094;50.822;4.376;2022-07-24T14:09:24;33.70;92.70
23827;DHT22;12094;50.822;4.376;2022-07-24T14:11:54;34.00;92.50
23827;DHT22;12094;50.822;4.376;2022-07-24T14:14:21;34.50;92.00
23827;DHT22;12094;50.822;4.376;2022-07-24T14:16:48;34.50;91.40
23827;DHT22;12094;50.822;4.376;2022-07-24T14:19:16;34.60;91.10
23827;DHT22;12094;50.822;4.376;2022-07-24T14:21:43;34.80;90.90
23827;DHT22;12094;50.822;4.376;2022-07-24T14:24:15;34.80;90.60
23827;DHT22;12094;50.822;4.376;2022-07-24T14:26:45;34.30;90.70
23827;DHT22;12094;50.822;4.376;2022-07-24T14:29:12;34.10;91.10
23827;DHT22;12094;50.822;4.376;2022-07-24T14:31:39;34.10;90.70
23827;DHT22;12094;50.822;4.376;2022-07-24T14:34:06;34.00;90.60
23827;DHT22;12094;50.822;4.376;2022-07-24T14:36:34;33.90;90.30
23827;DHT22;12094;50.822;4.376;2022-07-24T14:39:01;34.10;90.40
23827;DHT22;12094;50.822;4.376;2022-07-24T14:41:28;34.40;89.80
23827;DHT22;12094;50.822;4.376;2022-07-24T14:43:55;34.20;90.10
23827;DHT22;12094;50.822;4.376;2022-07-24T14:46:25;33.90;90.20
23827;DHT22;12094;50.822;4.376;2022-07-24T14:48:52;34.60;89.50
23827;DHT22;12094;50.822;4.376;2022-07-24T14:51:20;34.90;88.10
23827;DHT22;12094;50.822;4.376;2022-07-24T14:53:47;35.40;86.90
23827;DHT22;12094;50.822;4.376;2022-07-24T14:56:13;35.30;86.60
23827;DHT22;12094;50.822;4.376;2022-07-24T14:58:40;35.00;86.90
23827;DHT22;12094;50.822;4.376;2022-07-24T15:01:07;34.70;86.70
23827;DHT22;12094;50.822;4.376;2022-07-24T15:03:34;35.20;86.00
23827;DHT22;12094;50.822;4.376;2022-07-24T15:06:01;35.80;85.00
23827;DHT22;12094;50.822;4.376;2022-07-24T15:08:31;35.00;86.30
23827;DHT22;12094;50.822;4.376;2022-07-24T15:10:59;34.30;86.80
23827;DHT22;12094;50.822;4.376;2022-07-24T15:13:26;33.90;87.90
23827;DHT22;12094;50.822;4.376;2022-07-24T15:15:55;33.10;89.30
23827;DHT22;12094;50.822;4.376;2022-07-24T15:18:23;32.50;90.00
23827;DHT22;12094;50.822;4.376;2022-07-24T15:20:50;32.30;90.30
23827;DHT22;12094;50.822;4.376;2022-07-24T15:23:18;32.40;90.20
23827;DHT22;12094;50.822;4.376;2022-07-24T15:25:45;32.40;90.10
23827;DHT22;12094;50.822;4.376;2022-07-24T15:28:13;32.20;90.80
23827;DHT22;12094;50.822;4.376;2022-07-24T15:30:40;32.10;90.80
23827;DHT22;12094;50.822;4.376;2022-07-24T15:33:09;32.10;90.70
23827;DHT22;12094;50.822;4.376;2022-07-24T15:35:36;32.00;90.60
23827;DHT22;12094;50.822;4.376;2022-07-24T15:38:03;31.60;91.00
23827;DHT22;12094;50.822;4.376;2022-07-24T15:40:30;31.40;91.30
23827;DHT22;12094;50.822;4.376;2022-07-24T15:42:59;31.40;91.30
23827;DHT22;12094;50.822;4.376;2022-07-24T15:45:27;31.50;91.40
23827;DHT22;12094;50.822;4.376;2022-07-24T15:47:54;31.50;91.50
23827;DHT22;12094;50.822;4.376;2022-07-24T15:50:21;31.50;91.80
23827;DHT22;12094;50.822;4.376;2022-07-24T15:52:48;31.60;91.50
23827;DHT22;12094;50.822;4.376;2022-07-24T15:55:15;31.80;91.20
23827;DHT22;12094;50.822;4.376;2022-07-24T15:57:50;31.90;90.90
23827;DHT22;12094;50.822;4.376;2022-07-24T16:00:17;31.80;90.10
23827;DHT22;12094;50.822;4.376;2022-07-24T16:02:44;31.70;90.20
23827;DHT22;12094;50.822;4.376;2022-07-24T16:05:11;31.80;90.60
23827;DHT22;12094;50.822;4.376;2022-07-24T16:07:38;31.70;90.10
23827;DHT22;12094;50.822;4.376;2022-07-24T16:10:06;31.60;90.30
23827;DHT22;12094;50.822;4.376;2022-07-24T16:12:33;31.60;90.00
23827;DHT22;12094;50.822;4.376;2022-07-24T16:15:00;31.60;90.10